Vancourt, Texas
Current Conditions -  °F | °C
As of 12:51 AM on Sunday 26 Oct 2014 (Local Time) from KSJT Reporting Station
Clear Clear  
Wind Chill: 62°   Ceiling: Unl
Heat Index: 62°   Visibility: 10mi
Dew Point: 51°   Wind: 8mph
Humidity: 67%   Direction: 200°SSW
Pressure: 30.08"   Gusts: NA
Location:  31.34°N, 100.18°W
Report Text: KSJT 260551Z AUTO 20007KT 10SM CLR 17/11 A3008 RMK AO2 SLP167 T01670106 10278 20167 403220128 58005
Loading
Personal Weather Stations






























Interactive Weather Map New forecast layout! Learn more

10-Day Weather Forecast

Advertisements
Track Severe Weather on mobile